createdAt,value
2023-05-21T00:03:27.181Z,15.25
2023-05-21T00:08:28.876Z,13.73
2023-05-21T00:13:30.233Z,14.90
2023-05-21T00:18:32.509Z,18.65
2023-05-21T00:23:34.188Z,15.65
2023-05-21T00:28:35.647Z,15.70
2023-05-21T00:33:37.286Z,16.02
2023-05-21T00:38:38.697Z,15.95
2023-05-21T00:43:40.313Z,13.85
2023-05-21T00:48:43.669Z,15.18
2023-05-21T00:53:45.863Z,16.25
2023-05-21T00:58:47.919Z,17.35
2023-05-21T01:03:49.396Z,16.50
2023-05-21T01:08:50.942Z,14.13
2023-05-21T01:13:52.469Z,15.65
2023-05-21T01:18:53.989Z,14.95
2023-05-21T01:23:56.087Z,13.02
2023-05-21T01:28:57.464Z,16.48
2023-05-21T01:34:05.572Z,17.77
2023-05-21T01:39:19.427Z,14.27
2023-05-21T01:44:22.945Z,14.45
2023-05-21T01:49:24.953Z,14.05
2023-05-21T01:54:26.327Z,21.58
2023-05-21T01:59:27.888Z,15.45
2023-05-21T02:04:29.350Z,16.90
2023-05-21T02:09:30.735Z,14.07
2023-05-21T02:14:33.679Z,17.95
2023-05-21T02:19:35.408Z,15.77
2023-05-21T02:24:36.815Z,15.45
2023-05-21T02:29:38.225Z,15.20
2023-05-21T02:34:42.270Z,14.50
2023-05-21T02:39:43.717Z,14.45
2023-05-21T02:44:45.080Z,15.50
2023-05-21T02:49:46.954Z,15.40
2023-05-21T02:54:48.400Z,13.82
2023-05-21T02:59:49.799Z,14.57
2023-05-21T03:04:51.486Z,16.27
2023-05-21T03:09:53.007Z,16.50
2023-05-21T03:14:54.438Z,14.30
2023-05-21T03:19:56.080Z,16.33
2023-05-21T03:24:58.177Z,15.95
2023-05-21T03:29:59.597Z,16.17
2023-05-21T03:35:00.965Z,17.67
2023-05-21T03:40:02.496Z,20.90
2023-05-21T03:45:04.125Z,16.92
2023-05-21T03:50:06.231Z,13.57
2023-05-21T03:55:08.037Z,21.40
2023-05-21T04:00:09.952Z,17.17
2023-05-21T04:05:11.334Z,13.60
2023-05-21T04:10:13.124Z,15.77
2023-05-21T04:15:14.554Z,18.33
2023-05-21T04:20:16.744Z,19.10
2023-05-21T04:25:18.176Z,20.45
2023-05-21T04:30:20.015Z,20.23
2023-05-21T04:35:21.496Z,16.13
2023-05-21T04:40:24.312Z,16.00
2023-05-21T04:45:25.674Z,15.52
2023-05-21T04:50:27.068Z,18.33
2023-05-21T04:55:28.870Z,19.25
2023-05-21T05:00:30.396Z,18.15
2023-05-21T05:05:31.790Z,15.35
2023-05-21T05:10:33.166Z,15.57
2023-05-21T05:55:29.119Z,15.20
2023-05-21T06:00:30.674Z,12.77
2023-05-21T06:05:32.110Z,14.05
2023-05-21T06:10:33.495Z,16.73
2023-05-21T06:15:35.047Z,16.23
2023-05-21T06:20:37.073Z,15.20
2023-05-21T06:25:40.488Z,15.27
2023-05-21T06:30:42.138Z,13.63
2023-05-21T06:35:43.548Z,18.48
2023-05-21T06:40:47.373Z,11.35
2023-05-21T06:45:48.797Z,13.73
2023-05-21T06:50:50.188Z,13.93
2023-05-21T06:55:53.786Z,12.15
2023-05-21T07:00:55.353Z,11.55
2023-05-21T07:05:59.765Z,13.32
2023-05-21T07:11:01.187Z,12.63
2023-05-21T07:16:03.008Z,13.32
2023-05-21T07:21:04.536Z,11.20
2023-05-21T07:26:06.010Z,10.65
2023-05-21T07:31:08.338Z,12.32
2023-05-21T07:36:09.807Z,16.15
2023-05-21T07:41:11.303Z,11.43
2023-05-21T07:46:12.733Z,11.70
2023-05-21T07:51:14.405Z,11.57
2023-05-21T07:56:15.856Z,14.00
2023-05-21T08:01:17.286Z,12.77
2023-05-21T08:06:18.700Z,11.27
2023-05-21T08:11:21.723Z,11.48
2023-05-21T08:16:23.562Z,11.23
2023-05-21T08:21:25.047Z,11.13
2023-05-21T08:26:26.490Z,11.30
2023-05-21T08:31:28.106Z,9.82
2023-05-21T08:36:29.537Z,16.73
2023-05-21T08:41:33.648Z,9.23
2023-05-21T08:46:35.797Z,10.38
2023-05-21T08:51:38.864Z,10.70
2023-05-21T08:56:45.702Z,10.88
2023-05-21T09:01:49.938Z,9.07
2023-05-21T09:06:52.023Z,11.90
2023-05-21T09:11:53.692Z,10.13
2023-05-21T09:16:55.142Z,13.98
2023-05-21T09:22:02.615Z,8.98
2023-05-21T09:27:07.136Z,9.88
2023-05-21T09:32:09.946Z,11.07
2023-05-21T09:37:23.685Z,9.82
2023-05-21T09:42:29.747Z,9.73
2023-05-21T09:47:31.331Z,9.75
2023-05-21T09:52:36.598Z,10.98
2023-05-21T09:57:46.794Z,8.32
2023-05-21T10:02:50.589Z,10.35
2023-05-21T10:07:54.338Z,8.13
2023-05-21T10:13:00.758Z,8.30
2023-05-21T10:18:03.669Z,8.77
2023-05-21T10:23:06.172Z,7.60
2023-05-21T10:28:07.612Z,8.68
2023-05-21T10:33:09.234Z,8.05
2023-05-21T10:38:13.617Z,12.80
2023-05-21T10:43:36.560Z,8.25
2023-05-21T10:48:41.102Z,8.35
2023-05-21T10:54:09.050Z,8.77
2023-05-21T10:59:48.121Z,7.68
2023-05-21T11:04:58.654Z,10.90
2023-05-21T11:10:35.348Z,7.50
2023-05-21T11:15:58.612Z,6.97
2023-05-21T11:21:10.487Z,6.85
2023-05-21T11:26:12.001Z,7.30
2023-05-21T11:31:27.322Z,10.40
2023-05-21T11:36:28.849Z,7.07
2023-05-21T11:41:30.481Z,8.00
2023-05-21T11:46:33.981Z,5.78
2023-05-21T11:51:40.169Z,7.03
2023-05-21T11:56:41.921Z,5.88
2023-05-21T12:01:44.129Z,8.57
2023-05-21T12:06:45.704Z,6.07
2023-05-21T12:11:47.523Z,5.63
2023-05-21T12:16:49.017Z,7.47
2023-05-21T12:21:50.628Z,6.28
2023-05-21T12:26:52.170Z,6.55
2023-05-21T12:31:53.741Z,4.55
2023-05-21T12:36:55.556Z,5.93
2023-05-21T12:41:57.035Z,5.28
2023-05-21T12:46:59.473Z,6.72
2023-05-21T12:52:05.890Z,4.45
2023-05-21T12:57:15.226Z,6.22
2023-05-21T13:02:20.408Z,6.50
2023-05-21T13:12:24.996Z,4.90
2023-05-21T13:17:27.684Z,4.72
2023-05-21T13:22:29.171Z,5.38
2023-05-21T13:27:30.997Z,8.05
2023-05-21T13:32:32.456Z,8.65
2023-05-21T13:37:36.131Z,6.70
2023-05-21T13:42:38.462Z,6.40
2023-05-21T13:47:40.663Z,5.75
2023-05-21T13:52:42.317Z,4.63
2023-05-21T13:57:44.168Z,4.30
2023-05-21T14:02:45.813Z,4.85
2023-05-21T14:07:48.239Z,6.55
2023-05-21T14:12:49.636Z,4.57
2023-05-21T14:17:52.271Z,4.70
2023-05-21T14:22:53.666Z,4.95
2023-05-21T14:27:55.032Z,4.97
2023-05-21T14:32:58.001Z,5.35
2023-05-21T14:37:59.491Z,9.32
2023-05-21T14:43:01.139Z,4.68
2023-05-21T14:48:08.172Z,6.10
2023-05-21T14:53:11.463Z,6.38
2023-05-21T14:58:13.248Z,5.45
2023-05-21T15:03:14.673Z,4.57
2023-05-21T15:08:16.083Z,4.53
2023-05-21T15:13:17.515Z,7.03
2023-05-21T15:18:18.900Z,7.85
2023-05-21T15:23:20.327Z,3.95
2023-05-21T15:28:22.846Z,5.85
2023-05-21T15:33:24.552Z,5.18
2023-05-21T15:38:25.953Z,4.38
2023-05-21T15:43:28.352Z,7.60
2023-05-21T15:48:29.746Z,7.90
2023-05-21T15:53:31.128Z,6.38
2023-05-21T15:58:32.585Z,6.22
2023-05-21T16:03:34.011Z,7.85
2023-05-21T16:08:35.428Z,4.68
2023-05-21T16:13:36.885Z,5.57
2023-05-21T16:18:38.498Z,5.35
2023-05-21T16:23:40.157Z,4.47
2023-05-21T16:28:41.672Z,6.72
2023-05-21T16:33:43.089Z,4.70
2023-05-21T16:38:44.653Z,7.28
2023-05-21T16:43:46.221Z,4.75
2023-05-21T16:48:47.588Z,4.40
2023-05-21T16:53:48.953Z,4.95
2023-05-21T16:58:50.343Z,4.65
2023-05-21T17:03:51.847Z,6.03
2023-05-21T17:08:53.374Z,6.05
2023-05-21T17:13:55.201Z,5.57
2023-05-21T17:18:56.603Z,4.43
2023-05-21T17:23:57.979Z,4.13
2023-05-21T17:28:59.359Z,4.90
2023-05-21T17:34:00.815Z,9.25
2023-05-21T17:39:02.365Z,5.05
2023-05-21T17:44:03.942Z,9.27
2023-05-21T17:49:07.358Z,4.35
2023-05-21T17:54:08.784Z,6.63
2023-05-21T17:59:10.946Z,5.88
2023-05-21T18:04:13.223Z,6.75
2023-05-21T18:09:15.390Z,4.90
2023-05-21T18:14:16.832Z,6.78
2023-05-21T18:19:18.297Z,6.10
2023-05-21T18:24:19.763Z,6.32
2023-05-21T18:29:21.146Z,6.60
2023-05-21T18:34:22.595Z,10.48
2023-05-21T18:39:24.818Z,7.00
2023-05-21T18:44:27.191Z,12.70
2023-05-21T18:49:33.723Z,5.53
2023-05-21T18:54:35.105Z,8.13
2023-05-21T18:59:38.587Z,5.40
2023-05-21T19:04:39.990Z,7.13
2023-05-21T19:09:41.430Z,9.50
2023-05-21T19:14:44.876Z,8.65
2023-05-21T19:19:46.272Z,7.10
2023-05-21T19:24:48.362Z,11.38
2023-05-21T19:29:49.804Z,8.80
2023-05-21T19:34:52.176Z,7.50
2023-05-21T19:39:53.552Z,6.65
2023-05-21T19:44:54.925Z,11.38
2023-05-21T19:49:56.412Z,8.45
2023-05-21T19:55:04.582Z,6.95
2023-05-21T20:00:10.154Z,8.63
2023-05-21T20:05:11.696Z,6.37
2023-05-21T20:10:13.180Z,8.23
2023-05-21T20:15:14.916Z,10.23
2023-05-21T20:20:16.735Z,7.03
2023-05-21T20:25:18.307Z,7.55
2023-05-21T20:30:19.723Z,8.00
2023-05-21T20:35:21.182Z,8.18
2023-05-21T20:40:22.669Z,7.78
2023-05-21T20:45:24.066Z,10.02
2023-05-21T20:50:28.596Z,10.95
2023-05-21T20:55:34.605Z,7.65
2023-05-21T21:00:38.493Z,10.43
2023-05-21T21:05:40.116Z,10.73
2023-05-21T21:10:42.602Z,10.65
2023-05-21T21:15:44.298Z,13.05
2023-05-21T21:20:49.770Z,11.85
2023-05-21T21:25:51.582Z,11.32
2023-05-21T21:30:53.110Z,10.82
2023-05-21T21:35:54.496Z,15.25
2023-05-21T21:40:55.925Z,10.10
2023-05-21T21:45:57.321Z,11.15
2023-05-21T21:50:58.968Z,10.52
2023-05-21T21:56:00.752Z,10.38
2023-05-21T22:01:02.227Z,11.48
2023-05-21T22:06:03.733Z,11.15
2023-05-21T22:11:05.228Z,12.52
2023-05-21T22:16:07.293Z,12.45
2023-05-21T22:21:14.179Z,16.85
2023-05-21T22:26:15.912Z,24.13
2023-05-21T22:31:17.492Z,22.65
2023-05-21T22:36:18.946Z,21.77
2023-05-21T22:41:20.684Z,22.75
2023-05-21T22:46:22.148Z,20.17
2023-05-21T22:51:23.730Z,18.95
2023-05-21T22:56:25.101Z,15.05
2023-05-21T23:01:26.670Z,14.88
2023-05-21T23:06:28.046Z,15.98
2023-05-21T23:11:29.436Z,16.67
2023-05-21T23:16:32.166Z,18.50
2023-05-21T23:21:33.605Z,15.20
2023-05-21T23:26:35.467Z,15.75
2023-05-21T23:31:36.992Z,13.88
2023-05-21T23:36:38.391Z,18.02
2023-05-21T23:41:39.815Z,11.15
2023-05-21T23:46:44.418Z,14.10
2023-05-21T23:51:46.665Z,17.83
2023-05-21T23:56:48.064Z,15.23
